Time;durP1;ratioP1;P1;durP2;ratioP2;P2;SDS_P1;SDS_P2;PMS_P1;PMS_P2;Temp;Humidity;BMP_temperature;BMP_pressure;BME280_temperature;BME280_humidity;BME280_pressure;Samples;Min_cycle;Max_cycle;Signal;HPM_P1;HPM_P2
2023/05/19 00:01:49;;;;;;;4.25;2.58;;;;;;;17.11;68.08;101049.91;5071537;28;20059;-76
2023/05/19 00:04:17;;;;;;;2.55;2.35;;;;;;;17.30;67.42;101049.75;5072786;28;20052;-76
2023/05/19 00:06:49;;;;;;;4.28;2.13;;;;;;;17.27;66.03;101046.78;5072658;28;20111;-76
2023/05/19 00:09:18;;;;;;;3.75;2.20;;;;;;;17.30;67.48;101046.19;5072806;28;20052;-75
2023/05/19 00:11:46;;;;;;;3.88;2.03;;;;;;;17.11;66.30;101047.16;5072552;28;20041;-75
2023/05/19 00:14:14;;;;;;;3.55;2.33;;;;;;;17.22;66.68;101038.63;5072694;28;20083;-76
2023/05/19 00:16:43;;;;;;;4.43;2.08;;;;;;;17.14;67.59;101043.78;5071419;28;20059;-75
2023/05/19 00:19:11;;;;;;;4.30;2.33;;;;;;;17.18;67.02;101043.97;5072973;28;20047;-76
2023/05/19 00:21:39;;;;;;;3.55;1.92;;;;;;;17.04;66.23;101035.72;5071919;28;20041;-75
2023/05/19 00:24:07;;;;;;;3.47;2.30;;;;;;;17.10;66.04;101030.91;5075199;28;20040;-76
2023/05/19 00:26:35;;;;;;;3.72;2.60;;;;;;;17.22;66.07;101033.09;5071566;28;20422;-76
2023/05/19 00:29:05;;;;;;;8.20;2.70;;;;;;;17.26;67.02;101029.38;5072422;28;20045;-77
2023/05/19 00:31:33;;;;;;;2.90;2.28;;;;;;;17.12;67.49;101023.94;5072186;28;20475;-77
2023/05/19 00:34:01;;;;;;;3.20;2.20;;;;;;;17.03;67.18;101014.72;5072356;28;20048;-77
2023/05/19 00:36:29;;;;;;;4.13;2.45;;;;;;;17.22;66.92;101022.03;5071070;28;20040;-76
2023/05/19 00:38:57;;;;;;;3.67;2.10;;;;;;;17.15;67.30;101027.97;5072366;28;20418;-77
2023/05/19 00:41:25;;;;;;;2.67;2.28;;;;;;;17.22;65.99;101033.09;5072230;28;20494;-76
2023/05/19 00:43:54;;;;;;;4.72;2.85;;;;;;;17.05;67.15;101026.28;5072255;28;20059;-77
2023/05/19 00:46:22;;;;;;;3.08;2.47;;;;;;;17.07;67.99;101015.75;5072261;28;20048;-79
2023/05/19 00:48:50;;;;;;;2.70;2.05;;;;;;;17.03;67.22;101020.25;5071069;28;20059;-77
2023/05/19 00:51:18;;;;;;;6.88;2.63;;;;;;;17.06;67.64;101030.72;5070765;28;20483;-77
2023/05/19 00:53:49;;;;;;;2.90;2.50;;;;;;;17.00;67.26;101015.31;5074556;28;20059;-78
2023/05/19 00:56:18;;;;;;;3.75;2.30;;;;;;;17.18;67.22;101019.91;5078804;28;20044;-77
2023/05/19 00:58:49;;;;;;;4.10;2.42;;;;;;;17.12;66.51;101026.69;5077628;28;20044;-78
2023/05/19 01:01:20;;;;;;;3.63;2.28;;;;;;;17.03;65.49;101037.69;5078769;28;20048;-76
2023/05/19 01:03:50;;;;;;;3.83;2.65;;;;;;;17.19;65.28;101029.00;5078761;28;20075;-77
2023/05/19 01:06:19;;;;;;;2.55;2.15;;;;;;;17.13;65.69;101039.38;5078643;28;20402;-77
2023/05/19 01:08:50;;;;;;;4.43;2.60;;;;;;;17.08;65.76;101028.44;5078639;28;20391;-78
2023/05/19 01:11:21;;;;;;;7.03;2.92;;;;;;;17.11;66.89;101022.25;5077257;28;20410;-76
2023/05/19 01:13:49;;;;;;;3.90;2.60;;;;;;;17.23;66.23;101034.72;5078617;28;20047;-77
2023/05/19 01:16:21;;;;;;;2.85;2.53;;;;;;;17.04;65.45;101036.53;5077415;28;20056;-78
2023/05/19 01:19:14;;;;;;;4.53;2.40;;;;;;;16.93;67.25;101030.38;5078583;28;20057;-76
2023/05/19 01:22:00;;;;;;;2.72;2.25;;;;;;;17.16;65.73;101035.97;5078500;28;20052;-77
2023/05/19 01:24:40;;;;;;;3.08;2.45;;;;;;;16.91;65.83;101029.91;5078762;28;20398;-76
2023/05/19 01:27:14;;;;;;;3.72;2.53;;;;;;;16.86;65.71;101043.81;5078343;28;20044;-76
2023/05/19 01:30:03;;;;;;;3.58;2.90;;;;;;;16.91;65.48;101031.81;5078155;28;20051;-76
2023/05/19 01:32:33;;;;;;;4.22;3.00;;;;;;;17.03;64.98;101023.84;5077161;28;20067;-76
2023/05/19 01:35:04;;;;;;;4.05;2.30;;;;;;;16.92;64.26;101026.00;5076862;28;20059;-76
2023/05/19 01:37:33;;;;;;;3.78;2.55;;;;;;;17.08;63.98;101019.31;5077141;28;20071;-76
2023/05/19 01:40:01;;;;;;;5.47;2.20;;;;;;;17.01;64.66;101022.50;5078217;28;20040;-76
2023/05/19 01:42:36;;;;;;;3.83;2.47;;;;;;;16.97;64.44;101021.47;5076937;28;20049;-76
2023/05/19 01:45:09;;;;;;;2.97;2.42;;;;;;;16.88;64.87;101016.72;5077064;28;20045;-76
2023/05/19 01:47:41;;;;;;;3.45;2.17;;;;;;;16.82;65.56;101026.25;5076903;28;20044;-75
2023/05/19 01:50:10;;;;;;;2.50;2.30;;;;;;;16.93;64.37;101022.09;5076807;28;20077;-77
2023/05/19 01:52:38;;;;;;;3.80;2.55;;;;;;;16.82;63.97;101017.97;5078162;28;20180;-77
2023/05/19 01:55:08;;;;;;;4.45;2.67;;;;;;;16.85;64.72;101016.50;5078230;28;20483;-75
2023/05/19 01:57:52;;;;;;;5.07;2.65;;;;;;;16.92;63.69;101019.66;5078250;28;20048;-77
2023/05/19 02:00:56;;;;;;;2.38;1.98;;;;;;;17.01;63.29;101022.50;5076811;28;20063;-77
2023/05/19 02:04:17;;;;;;;3.70;2.47;;;;;;;16.91;64.33;101018.00;5078155;28;20052;-78
2023/05/19 02:07:11;;;;;;;3.65;2.40;;;;;;;16.84;64.29;101018.47;5072868;28;20048;-77
2023/05/19 02:10:01;;;;;;;3.88;2.92;;;;;;;16.83;63.76;101014.06;5074829;28;20059;-78
2023/05/19 02:12:36;;;;;;;4.10;2.50;;;;;;;16.73;64.60;101019.81;5074821;28;20055;-77
2023/05/19 02:15:23;;;;;;;4.05;2.70;;;;;;;16.79;63.75;101011.13;5074862;28;20049;-78
2023/05/19 02:17:54;;;;;;;4.65;2.78;;;;;;;16.81;64.86;101010.78;5073670;28;20102;-78
2023/05/19 02:20:22;;;;;;;4.65;3.03;;;;;;;16.76;64.47;101017.25;5073429;28;20047;-78
2023/05/19 02:22:50;;;;;;;4.15;2.42;;;;;;;16.70;65.63;101020.44;5073483;28;20044;-78
2023/05/19 02:25:18;;;;;;;3.85;2.67;;;;;;;16.69;65.60;101016.03;5074663;28;20375;-78
2023/05/19 02:27:47;;;;;;;4.30;2.75;;;;;;;16.63;65.80;101018.91;5073355;28;20048;-77
2023/05/19 02:30:15;;;;;;;4.70;2.95;;;;;;;16.75;65.64;101015.63;5074314;28;20045;-78
2023/05/19 02:32:45;;;;;;;3.35;2.50;;;;;;;16.67;65.43;101016.34;5073311;28;20053;-77
2023/05/19 02:35:13;;;;;;;6.10;2.83;;;;;;;16.70;67.03;101021.25;5074618;28;20395;-77
2023/05/19 02:37:42;;;;;;;5.40;2.90;;;;;;;16.73;66.73;101017.06;5074391;28;20040;-78
2023/05/19 02:40:10;;;;;;;4.90;3.10;;;;;;;16.65;67.40;101016.66;5073146;28;20052;-78
2023/05/19 02:42:38;;;;;;;6.13;2.75;;;;;;;16.58;66.99;101016.28;5074437;28;20041;-77
2023/05/19 02:45:07;;;;;;;5.15;2.58;;;;;;;16.48;67.35;101024.78;5073115;28;20044;-77
2023/05/19 02:47:35;;;;;;;4.32;2.70;;;;;;;16.48;67.73;101014.53;5072928;28;20049;-77
2023/05/19 02:50:05;;;;;;;5.25;2.47;;;;;;;16.53;68.56;101013.63;5072814;28;20052;-78
2023/05/19 02:52:33;;;;;;;4.90;3.20;;;;;;;16.45;68.39;101011.59;5072940;28;20051;-77
2023/05/19 02:55:01;;;;;;;3.70;2.90;;;;;;;16.48;69.06;101006.25;5072941;28;20372;-78
2023/05/19 02:57:30;;;;;;;6.13;2.65;;;;;;;16.48;68.01;101005.44;5072856;28;20056;-77
2023/05/19 02:59:58;;;;;;;4.55;3.03;;;;;;;16.51;68.19;101000.13;5073752;28;20052;-77
2023/05/19 03:02:26;;;;;;;3.95;2.95;;;;;;;16.61;68.32;101009.28;5055960;28;20048;-77
2023/05/19 03:04:54;;;;;;;4.82;2.95;;;;;;;16.44;69.51;101004.44;5074008;28;20053;-77
2023/05/19 03:07:23;;;;;;;5.00;2.92;;;;;;;16.34;69.89;101006.31;5072656;28;20055;-77
2023/05/19 03:09:52;;;;;;;4.40;3.00;;;;;;;16.36;71.10;101008.72;5072405;28;20577;-77
2023/05/19 03:12:20;;;;;;;7.13;3.00;;;;;;;16.45;69.66;100995.84;5072504;28;20063;-76
2023/05/19 03:14:48;;;;;;;3.50;2.80;;;;;;;16.42;69.39;101007.50;5072419;28;20040;-78
2023/05/19 03:17:16;;;;;;;3.55;2.47;;;;;;;16.47;69.40;101012.09;5072439;28;20048;-78
2023/05/19 03:19:45;;;;;;;3.05;2.63;;;;;;;16.48;68.89;101005.44;5073488;28;20047;-78
2023/05/19 03:22:13;;;;;;;3.83;3.03;;;;;;;16.43;69.16;101000.03;5073405;28;20052;-78
2023/05/19 03:24:41;;;;;;;3.72;2.70;;;;;;;16.43;68.97;101000.03;5072269;28;20048;-77
2023/05/19 03:27:11;;;;;;;4.70;3.60;;;;;;;16.39;69.03;100997.88;5073322;28;20044;-77
2023/05/19 03:29:39;;;;;;;2.85;2.55;;;;;;;16.49;68.79;100991.34;5072035;28;20048;-78
2023/05/19 03:32:07;;;;;;;3.17;2.88;;;;;;;16.38;68.28;100998.22;5073276;28;20040;-78
2023/05/19 03:34:36;;;;;;;3.83;2.75;;;;;;;16.39;68.57;101003.41;5071954;28;20051;-77
2023/05/19 03:37:03;;;;;;;4.97;2.90;;;;;;;16.39;69.87;101003.41;5073261;28;20060;-78
2023/05/19 03:39:33;;;;;;;6.20;2.63;;;;;;;16.48;69.02;101002.69;5071864;28;20048;-77
2023/05/19 03:42:01;;;;;;;6.20;3.22;;;;;;;16.36;68.93;100997.69;5073033;28;20051;-76
2023/05/19 03:44:29;;;;;;;5.80;2.80;;;;;;;16.30;69.47;101004.44;5072986;28;20039;-77
2023/05/19 03:46:59;;;;;;;3.95;2.45;;;;;;;16.28;70.56;101012.22;5071798;28;20399;-78
2023/05/19 03:49:53;;;;;;;2.83;2.22;;;;;;;16.11;70.82;101003.44;5041676;28;20410;-78
2023/05/19 03:52:48;;;;;;;5.07;2.70;;;;;;;16.08;71.34;101006.00;5069953;28;20053;-77
2023/05/19 03:55:31;;;;;;;5.00;3.13;;;;;;;16.00;71.61;101015.81;5071773;28;20037;-77
2023/05/19 03:58:00;;;;;;;9.70;3.38;;;;;;;16.21;73.01;101010.69;5072827;28;20044;-77
2023/05/19 04:00:28;;;;;;;5.25;3.13;;;;;;;16.12;73.01;101021.66;5071418;28;20439;-77
2023/05/19 04:02:56;;;;;;;4.40;3.70;;;;;;;15.98;74.85;101018.03;5071448;28;20044;-77
2023/05/19 04:05:24;;;;;;;4.28;3.03;;;;;;;15.77;74.81;101021.19;5072761;28;20040;-77
2023/05/19 04:07:53;;;;;;;5.40;3.03;;;;;;;15.76;76.08;101007.69;5071423;28;20051;-77
2023/05/19 04:10:23;;;;;;;5.18;3.67;;;;;;;15.85;74.92;101030.69;5072457;28;20494;-77
2023/05/19 04:12:51;;;;;;;4.07;3.33;;;;;;;15.85;75.63;101022.41;5071383;28;20483;-78
2023/05/19 04:15:20;;;;;;;4.47;3.40;;;;;;;15.79;75.78;101016.16;5072536;28;20045;-77
2023/05/19 04:17:48;;;;;;;7.03;3.88;;;;;;;15.97;75.45;101028.28;5072820;28;20043;-77
2023/05/19 04:20:16;;;;;;;4.55;3.15;;;;;;;15.67;76.20;101016.66;5072544;28;20371;-77
2023/05/19 04:22:44;;;;;;;5.15;3.17;;;;;;;15.78;77.56;101013.72;5071140;28;20036;-77
2023/05/19 04:25:12;;;;;;;9.15;3.50;;;;;;;15.78;77.37;101016.50;5069274;28;20048;-77
2023/05/19 04:27:40;;;;;;;7.47;3.95;;;;;;;16.03;75.65;101025.44;5073237;28;20060;-77
2023/05/19 04:30:08;;;;;;;6.03;3.63;;;;;;;16.27;76.39;101016.91;5058457;28;20056;-86
2023/05/19 04:32:38;;;;;;;7.00;3.45;;;;;;;16.58;74.10;101030.09;5051405;28;20044;-86
2023/05/19 04:35:09;;;;;;;3.53;3.10;;;;;;;16.86;72.73;101031.97;5051478;28;20045;-87
2023/05/19 04:37:39;;;;;;;6.18;3.33;;;;;;;16.77;73.33;101027.16;5051199;28;20056;-86
2023/05/19 04:40:09;;;;;;;4.88;3.00;;;;;;;17.02;71.90;101029.66;5052158;28;20033;-83
2023/05/19 04:42:41;;;;;;;7.30;2.95;;;;;;;17.08;70.39;101036.72;5071262;28;20044;-86
2023/05/19 04:45:12;;;;;;;4.85;3.30;;;;;;;17.38;70.38;101034.34;5071064;28;20487;-85
2023/05/19 04:47:45;;;;;;;5.93;3.33;;;;;;;17.47;69.29;101031.63;5062297;28;20040;-86
2023/05/19 04:50:15;;;;;;;4.40;2.92;;;;;;;17.53;68.67;101040.59;5050916;28;20041;-87
2023/05/19 04:52:46;;;;;;;4.68;3.20;;;;;;;17.41;68.28;101035.66;5051001;28;20487;-86
2023/05/19 04:55:15;;;;;;;6.05;3.42;;;;;;;17.22;69.45;101030.31;5057368;28;20048;-86
2023/05/19 04:57:44;;;;;;;6.30;3.30;;;;;;;17.36;69.08;101030.25;5074422;28;20049;-87
2023/05/19 05:00:13;;;;;;;4.00;3.13;;;;;;;17.28;67.11;101031.81;5056689;28;20049;-86
2023/05/19 05:02:52;;;;;;;4.53;3.30;;;;;;;17.48;67.01;101038.78;5050982;28;20388;-89
2023/05/19 05:05:21;;;;;;;3.83;2.90;;;;;;;17.31;67.60;101039.50;5034648;28;20060;-92
2023/05/19 05:07:52;;;;;;;6.25;2.67;;;;;;;17.52;67.46;101030.69;5035616;28;20060;-88
2023/05/19 05:10:25;;;;;;;6.55;3.08;;;;;;;17.56;67.64;101046.31;5035425;28;20053;-92
2023/05/19 05:12:54;;;;;;;7.90;3.47;;;;;;;17.51;66.46;101042.88;5034646;28;20060;-91
2023/05/19 05:15:23;;;;;;;4.43;3.00;;;;;;;17.53;67.33;101044.19;5051332;28;20489;-91
2023/05/19 05:17:51;;;;;;;9.50;3.25;;;;;;;17.39;67.14;101041.50;5035117;28;20411;-93
2023/05/19 05:20:21;;;;;;;4.95;2.70;;;;;;;17.45;66.94;101045.78;5018372;28;20060;-92
2023/05/19 05:22:50;;;;;;;4.45;3.08;;;;;;;17.45;65.84;101039.44;5046735;28;20049;-91
2023/05/19 05:25:19;;;;;;;4.00;3.25;;;;;;;17.79;65.79;101039.94;5053239;28;20045;-92
2023/05/19 05:27:48;;;;;;;4.55;2.90;;;;;;;17.77;65.12;101042.19;5047712;28;20052;-93
2023/05/19 05:30:18;;;;;;;5.80;2.80;;;;;;;17.73;64.50;101042.84;5046902;28;20356;-92
2023/05/19 05:32:46;;;;;;;6.57;3.13;;;;;;;17.76;64.43;101040.56;5058824;28;20037;-92
2023/05/19 05:35:29;;;;;;;3.35;2.67;;;;;;;17.65;65.55;101040.03;5038025;28;20053;-94
2023/05/19 05:38:00;;;;;;;5.60;3.13;;;;;;;17.65;65.46;101042.81;5064323;28;20052;-91
2023/05/19 05:40:28;;;;;;;5.72;2.88;;;;;;;17.62;64.96;101041.50;5053770;28;20055;-94
2023/05/19 05:42:59;;;;;;;4.72;3.22;;;;;;;17.57;64.86;101038.84;5056808;28;20332;-90
2023/05/19 05:45:31;;;;;;;7.43;3.20;;;;;;;17.62;64.61;101024.06;5056411;28;20059;-89
2023/05/19 05:48:01;;;;;;;5.75;3.10;;;;;;;17.84;64.82;101034.28;5056246;28;20052;-90
2023/05/19 05:50:31;;;;;;;8.00;3.35;;;;;;;17.83;64.03;101038.16;5056793;28;20395;-90
2023/05/19 05:53:00;;;;;;;3.25;2.65;;;;;;;17.69;64.24;101044.63;5056709;28;20048;-92
2023/05/19 05:55:28;;;;;;;6.75;2.78;;;;;;;17.92;64.75;101033.50;5039291;28;20048;-92
2023/05/19 05:58:00;;;;;;;6.20;3.30;;;;;;;18.09;64.48;101049.38;5037556;28;20053;-90
2023/05/19 06:00:29;;;;;;;8.73;3.50;;;;;;;18.09;64.36;101051.34;5042688;28;20064;-90
2023/05/19 06:02:58;;;;;;;2.85;2.63;;;;;;;17.92;65.06;101050.09;5037108;28;20708;-90
2023/05/19 06:05:26;;;;;;;4.78;2.38;;;;;;;18.02;64.58;101053.75;5073585;28;20051;-90
2023/05/19 06:07:54;;;;;;;4.18;2.97;;;;;;;17.99;65.09;101036.63;5046772;28;20061;-89
2023/05/19 06:10:27;;;;;;;4.80;2.80;;;;;;;17.98;64.54;101043.28;5056099;28;20040;-89
2023/05/19 06:12:55;;;;;;;4.85;2.75;;;;;;;18.02;64.57;101054.53;5071892;28;20055;-88
2023/05/19 06:15:25;;;;;;;2.88;2.58;;;;;;;18.03;64.38;101052.59;5051368;28;20060;-92
2023/05/19 06:18:19;;;;;;;4.32;3.10;;;;;;;18.12;64.14;101051.53;5066769;28;20069;-90
2023/05/19 06:20:48;;;;;;;10.15;2.67;;;;;;;18.18;63.70;101052.19;5040484;28;20499;-89
2023/05/19 06:23:16;;;;;;;3.78;2.55;;;;;;;18.26;62.78;101051.41;5055169;28;20049;-91
2023/05/19 06:25:44;;;;;;;4.40;2.50;;;;;;;18.20;62.42;101049.94;5053228;28;20041;-91
2023/05/19 06:28:13;;;;;;;3.22;2.63;;;;;;;17.63;62.54;101062.50;5061448;28;20041;-76
2023/05/19 06:30:41;;;;;;;4.03;2.53;;;;;;;17.38;64.40;101061.19;5050401;28;20055;-76
2023/05/19 06:33:20;;;;;;;3.47;2.50;;;;;;;17.42;65.18;101063.03;5051868;28;20068;-75
2023/05/19 06:35:48;;;;;;;6.38;2.70;;;;;;;17.33;64.70;101059.38;5052776;28;20056;-75
2023/05/19 06:38:16;;;;;;;4.70;2.78;;;;;;;17.75;65.71;101069.41;5052851;28;20506;-76
2023/05/19 06:40:44;;;;;;;3.83;2.53;;;;;;;17.24;63.48;101067.59;5052617;28;20048;-76
2023/05/19 06:43:13;;;;;;;3.97;2.60;;;;;;;17.25;64.69;101071.19;5052461;28;20060;-75
2023/05/19 06:45:53;;;;;;;4.60;2.35;;;;;;;17.34;63.97;101074.81;5035766;28;20041;-76
2023/05/19 06:48:22;;;;;;;3.38;2.53;;;;;;;17.42;63.93;101079.63;5053736;28;20068;-76
2023/05/19 06:50:50;;;;;;;4.80;2.10;;;;;;;17.66;63.05;101080.41;5053372;28;20049;-75
2023/05/19 06:53:22;;;;;;;4.05;2.55;;;;;;;17.45;63.00;101073.44;5052387;28;20045;-76
2023/05/19 06:55:52;;;;;;;5.93;2.95;;;;;;;17.63;63.45;101076.31;5052623;28;20049;-75
2023/05/19 06:58:27;;;;;;;4.35;3.33;;;;;;;17.58;63.33;101082.81;5052530;28;20045;-76
2023/05/19 07:00:56;;;;;;;3.00;2.30;;;;;;;17.75;63.60;101077.69;5052435;28;20045;-75
2023/05/19 07:03:29;;;;;;;2.97;2.25;;;;;;;17.94;62.02;101086.59;5052597;28;20152;-75
2023/05/19 07:05:59;;;;;;;3.55;2.33;;;;;;;17.68;63.52;101083.66;5052414;28;20060;-76
2023/05/19 07:08:27;;;;;;;3.83;2.42;;;;;;;17.46;62.65;101088.91;5052364;28;20041;-77
2023/05/19 07:10:58;;;;;;;4.78;2.80;;;;;;;17.50;63.73;101088.28;5052196;28;20041;-76
2023/05/19 07:13:27;;;;;;;1.70;1.60;;;;;;;17.55;63.43;101090.94;5052245;28;20055;-76
2023/05/19 07:15:56;;;;;;;2.95;2.05;;;;;;;17.66;61.99;101074.88;5052097;28;20056;-76
2023/05/19 07:18:25;;;;;;;5.05;2.33;;;;;;;17.58;62.87;101073.69;5052222;28;20045;-76
2023/05/19 07:20:53;;;;;;;9.60;2.58;;;;;;;17.97;62.50;101082.38;5052170;28;20052;-78
2023/05/19 07:23:21;;;;;;;4.25;2.00;;;;;;;17.62;61.88;101076.63;5052094;28;20395;-77
2023/05/19 07:25:56;;;;;;;3.33;2.47;;;;;;;17.68;61.90;101075.38;5068417;28;20048;-76
2023/05/19 07:28:24;;;;;;;3.42;2.35;;;;;;;17.87;61.47;101075.16;5052940;28;20056;-76
2023/05/19 07:30:52;;;;;;;2.85;2.45;;;;;;;18.10;61.24;101073.16;5068286;28;20036;-77
2023/05/19 07:33:20;;;;;;;2.55;2.20;;;;;;;18.09;61.08;101077.06;5053132;28;20056;-77
2023/05/19 07:35:48;;;;;;;3.97;2.33;;;;;;;18.31;61.54;101082.84;5051833;28;20056;-76
2023/05/19 07:38:16;;;;;;;2.88;2.40;;;;;;;18.01;61.97;101077.84;5053074;28;20052;-76
2023/05/19 07:40:44;;;;;;;2.78;2.20;;;;;;;18.33;62.12;101086.16;5068096;28;20045;-76
2023/05/19 07:43:12;;;;;;;8.15;2.20;;;;;;;18.29;60.77;101085.16;5052830;28;20052;-76
2023/05/19 07:45:40;;;;;;;2.60;1.90;;;;;;;18.04;59.94;101082.72;5052810;28;20490;-76
2023/05/19 07:48:08;;;;;;;3.80;2.42;;;;;;;18.15;59.60;101085.25;5052819;28;20506;-77
2023/05/19 07:50:36;;;;;;;4.78;2.38;;;;;;;18.34;59.13;101087.78;5067773;28;20045;-77
2023/05/19 07:53:04;;;;;;;2.83;2.08;;;;;;;18.46;59.51;101093.50;5052635;28;20045;-77
2023/05/19 07:55:32;;;;;;;2.80;2.45;;;;;;;18.23;59.85;101087.25;5067925;28;20041;-76
2023/05/19 07:58:00;;;;;;;4.07;2.10;;;;;;;18.18;59.46;101088.19;5052522;28;20044;-76
2023/05/19 08:00:28;;;;;;;4.22;2.13;;;;;;;18.09;61.25;101098.44;5052379;28;20707;-75
2023/05/19 08:02:56;;;;;;;3.38;2.70;;;;;;;18.08;61.55;101091.28;5051982;28;20049;-76
2023/05/19 08:05:24;;;;;;;3.30;2.55;;;;;;;18.21;60.19;101087.56;5067712;28;20056;-74
2023/05/19 08:07:52;;;;;;;6.50;2.33;;;;;;;18.31;60.94;101091.16;5052536;28;20037;-75
2023/05/19 08:10:20;;;;;;;4.05;2.50;;;;;;;18.19;60.42;101092.59;5052091;28;20067;-75
2023/05/19 08:12:48;;;;;;;4.15;2.90;;;;;;;17.73;60.96;101087.13;5067579;28;20045;-74
2023/05/19 08:15:17;;;;;;;7.65;2.67;;;;;;;17.96;60.75;101084.34;5067417;28;20054;-75
2023/05/19 08:17:45;;;;;;;3.17;2.38;;;;;;;17.75;61.36;101091.53;5052233;28;20068;-75
2023/05/19 08:20:13;;;;;;;3.03;2.20;;;;;;;18.19;60.98;101089.81;5052129;28;20037;-74
2023/05/19 08:22:41;;;;;;;3.83;2.97;;;;;;;18.82;60.47;101079.72;5052143;28;20049;-75
2023/05/19 08:25:10;;;;;;;6.00;3.00;;;;;;;18.95;61.94;101084.31;5052055;28;20048;-76
2023/05/19 08:27:38;;;;;;;3.45;2.42;;;;;;;18.18;63.54;101104.81;5052238;28;20053;-76
2023/05/19 08:30:06;;;;;;;6.53;3.08;;;;;;;18.12;64.29;101089.47;5051807;28;20052;-75
2023/05/19 08:32:35;;;;;;;3.80;2.20;;;;;;;18.23;63.49;101092.78;5052015;28;20533;-75
2023/05/19 08:35:03;;;;;;;3.70;2.40;;;;;;;18.40;63.22;101095.63;5052030;28;20052;-74
2023/05/19 08:37:31;;;;;;;5.97;2.50;;;;;;;18.47;62.61;101089.59;5051947;28;20476;-74
2023/05/19 08:40:03;;;;;;;4.00;2.25;;;;;;;18.74;60.62;101090.50;5051963;28;20055;-75
2023/05/19 08:42:32;;;;;;;2.47;2.28;;;;;;;19.36;57.64;101087.78;5052018;28;20045;-74
2023/05/19 08:45:02;;;;;;;3.88;2.30;;;;;;;18.85;59.08;101079.06;5051991;28;20048;-73
2023/05/19 08:47:31;;;;;;;2.30;1.88;;;;;;;19.22;58.90;101092.66;5051968;28;20045;-74
2023/05/19 08:50:06;;;;;;;4.10;2.42;;;;;;;18.61;60.41;101096.97;5051645;28;20079;-73
2023/05/19 08:52:48;;;;;;;4.38;2.33;;;;;;;18.50;59.13;101113.09;5034192;28;20055;-73
2023/05/19 08:55:29;;;;;;;3.90;2.50;;;;;;;19.06;57.26;101091.19;5051805;28;20403;-75
2023/05/19 08:58:00;;;;;;;2.50;1.77;;;;;;;18.79;59.20;101092.28;5050823;28;20045;-74
2023/05/19 09:00:29;;;;;;;2.65;2.20;;;;;;;18.32;59.90;101101.13;5051457;28;20503;-74
2023/05/19 09:02:59;;;;;;;3.33;2.55;;;;;;;18.77;60.52;101105.66;5051563;28;20052;-73
2023/05/19 09:05:45;;;;;;;2.47;1.92;;;;;;;18.93;57.85;101092.16;5051749;28;20087;-74
2023/05/19 09:08:13;;;;;;;2.42;1.65;;;;;;;19.18;58.48;101096.13;5051571;28;20048;-74
2023/05/19 09:10:41;;;;;;;4.05;1.92;;;;;;;18.88;58.26;101092.31;5051339;28;20045;-75
2023/05/19 09:13:09;;;;;;;2.58;1.70;;;;;;;18.73;58.37;101111.00;5049564;28;20049;-75
2023/05/19 09:15:40;;;;;;;2.35;2.08;;;;;;;18.79;60.84;101101.44;5054331;28;20395;-75
2023/05/19 09:18:09;;;;;;;3.90;1.80;;;;;;;18.89;60.90;101096.69;5055552;28;20056;-74
2023/05/19 09:20:39;;;;;;;3.35;1.88;;;;;;;18.62;58.22;101109.72;5055436;28;20392;-76
2023/05/19 09:23:15;;;;;;;3.28;2.35;;;;;;;18.45;59.31;101102.97;5055471;28;20049;-74
2023/05/19 09:25:50;;;;;;;2.58;2.00;;;;;;;18.71;57.44;101105.00;5055515;28;20048;-75
2023/05/19 09:28:29;;;;;;;2.38;1.75;;;;;;;18.59;58.92;101099.25;5055501;28;20045;-75
2023/05/19 09:31:08;;;;;;;3.47;2.13;;;;;;;18.90;59.79;101106.66;5055197;28;20053;-75
2023/05/19 09:33:41;;;;;;;4.07;2.45;;;;;;;18.60;61.02;101107.25;5055279;28;20045;-74
2023/05/19 09:36:12;;;;;;;4.75;2.13;;;;;;;18.75;58.96;101105.16;5055406;28;20056;-76
2023/05/19 09:38:41;;;;;;;5.40;2.13;;;;;;;18.54;59.72;101114.88;5055075;28;20052;-75
2023/05/19 09:41:09;;;;;;;2.70;2.05;;;;;;;18.62;59.10;101123.56;5055206;28;20045;-74
2023/05/19 09:43:37;;;;;;;2.65;1.80;;;;;;;18.49;59.68;101117.81;5054892;28;20048;-76
2023/05/19 09:46:08;;;;;;;4.93;2.20;;;;;;;18.53;61.20;101113.25;5053866;28;20041;-74
2023/05/19 09:48:39;;;;;;;7.22;2.35;;;;;;;18.92;60.54;101107.16;5055133;28;20479;-76
2023/05/19 09:51:09;;;;;;;2.75;2.42;;;;;;;18.86;59.33;101108.44;5053633;28;20049;-75
2023/05/19 09:53:37;;;;;;;3.15;2.20;;;;;;;18.95;58.73;101109.25;5054985;28;20041;-74
2023/05/19 09:56:07;;;;;;;3.88;2.55;;;;;;;19.18;58.28;101098.06;5053669;28;20041;-75
2023/05/19 09:58:36;;;;;;;4.55;2.40;;;;;;;19.15;59.19;101093.16;5054698;28;20061;-75
2023/05/19 10:01:05;;;;;;;3.92;2.63;;;;;;;19.06;61.52;101107.00;5054774;28;20057;-75
2023/05/19 10:03:33;;;;;;;2.80;2.20;;;;;;;19.83;56.53;101106.47;5054778;28;20041;-76
2023/05/19 10:06:04;;;;;;;2.55;2.03;;;;;;;19.36;58.52;101109.16;5053466;28;20510;-75
2023/05/19 10:08:33;;;;;;;4.03;1.98;;;;;;;19.82;55.56;101104.84;5053459;28;20053;-77
2023/05/19 10:11:02;;;;;;;3.25;2.22;;;;;;;20.04;56.40;101110.53;5054319;28;20045;-77
2023/05/19 10:13:30;;;;;;;3.22;1.90;;;;;;;19.96;55.66;101107.47;5054622;28;20067;-78
2023/05/19 10:15:59;;;;;;;2.53;2.33;;;;;;;20.04;55.82;101108.56;5054483;28;20055;-77
2023/05/19 10:18:29;;;;;;;5.50;2.67;;;;;;;19.91;57.47;101096.50;5053332;28;20045;-78
2023/05/19 10:20:59;;;;;;;2.78;2.30;;;;;;;20.26;56.07;101101.13;5054318;28;20049;-80
2023/05/19 10:23:27;;;;;;;4.25;2.10;;;;;;;20.31;55.25;101097.34;5054288;28;20480;-80
2023/05/19 10:25:58;;;;;;;2.95;2.55;;;;;;;19.75;57.55;101093.44;5061311;28;20047;-78
2023/05/19 10:28:36;;;;;;;4.10;2.38;;;;;;;19.79;58.59;101111.03;5073584;28;20055;-77
2023/05/19 10:31:08;;;;;;;4.13;2.53;;;;;;;19.85;59.56;101106.94;5068707;28;20411;-77
2023/05/19 10:34:06;;;;;;;3.30;2.10;;;;;;;20.31;56.31;101089.00;5054128;28;20056;-78
2023/05/19 10:36:47;;;;;;;2.63;2.20;;;;;;;19.80;60.19;101100.75;5069533;28;20056;-79
2023/05/19 10:39:36;;;;;;;3.50;2.42;;;;;;;19.99;57.53;101101.22;5069282;28;20395;-78
2023/05/19 10:42:35;;;;;;;2.42;2.03;;;;;;;19.79;58.64;101108.28;5072240;28;20044;-78
2023/05/19 10:45:18;;;;;;;4.32;2.45;;;;;;;19.18;60.55;101103.59;5073589;28;20479;-78
2023/05/19 10:47:50;;;;;;;4.88;2.20;;;;;;;18.70;62.20;101100.59;5072542;28;20048;-78
2023/05/19 10:50:19;;;;;;;2.67;2.38;;;;;;;19.24;64.46;101099.53;5069948;28;20380;-78
2023/05/19 10:52:55;;;;;;;3.42;2.30;;;;;;;18.80;63.43;101078.09;5072993;28;20045;-80
2023/05/19 10:55:46;;;;;;;2.45;2.05;;;;;;;18.87;65.54;101090.66;5073045;28;20501;-82
2023/05/19 10:58:14;;;;;;;4.47;2.65;;;;;;;19.07;64.97;101075.38;5073619;28;20044;-81
2023/05/19 11:00:42;;;;;;;3.38;2.60;;;;;;;19.24;65.62;101080.09;5072101;28;20044;-78
2023/05/19 11:03:12;;;;;;;3.30;2.65;;;;;;;19.40;63.38;101087.94;5073554;28;20057;-79
2023/05/19 11:05:44;;;;;;;4.28;2.70;;;;;;;18.98;64.63;101080.91;5089158;28;20491;-78
2023/05/19 11:08:12;;;;;;;5.57;2.63;;;;;;;19.06;67.45;101080.09;5073607;28;20052;-78
2023/05/19 11:10:44;;;;;;;4.07;2.97;;;;;;;18.59;67.62;101077.09;5073109;28;20139;-80
2023/05/19 11:13:22;;;;;;;3.80;3.00;;;;;;;18.75;69.15;101092.13;5073360;28;20119;-77
2023/05/19 11:15:50;;;;;;;3.72;2.88;;;;;;;19.29;66.63;101077.16;5069245;28;20048;-83
2023/05/19 11:18:20;;;;;;;4.90;3.28;;;;;;;19.37;67.64;101077.47;5063526;28;20040;-82
2023/05/19 11:20:56;;;;;;;4.88;3.22;;;;;;;19.58;66.88;101074.84;5052933;28;20068;-82
2023/05/19 11:23:25;;;;;;;3.83;3.17;;;;;;;19.55;67.12;101073.53;5060434;28;20491;-83
2023/05/19 11:25:53;;;;;;;3.85;2.65;;;;;;;19.40;68.57;101072.09;5069962;28;20437;-82
2023/05/19 11:28:26;;;;;;;5.28;3.33;;;;;;;19.89;66.87;101076.53;5073158;28;20037;-82
2023/05/19 11:30:57;;;;;;;6.97;3.05;;;;;;;19.95;64.45;101079.97;5073068;28;20400;-82
2023/05/19 11:33:26;;;;;;;4.13;3.35;;;;;;;19.90;63.61;101074.59;5071778;28;20055;-82
2023/05/19 11:35:59;;;;;;;5.55;2.85;;;;;;;19.91;63.92;101068.72;5071038;28;20482;-83
2023/05/19 11:38:28;;;;;;;5.03;3.35;;;;;;;19.93;63.23;101060.84;5057154;28;20041;-82
2023/05/19 11:40:57;;;;;;;4.75;2.70;;;;;;;19.94;61.97;101067.25;5059049;28;20044;-83
2023/05/19 11:43:25;;;;;;;4.68;3.03;;;;;;;19.80;61.40;101061.88;5061222;28;20049;-84